Meteo Giornale » Osservazioni meteo Stati Uniti (USA) » Kimball
ore: 06:55 - Osservazioni Meteo Kimball
Lat. 41° 11' N Lon. 103° 41' W Alt. 1501 metri s.l.m.
17 °C
Nuvoloso
Temp. 24 Ore
17 °C
32 °C
Ovest/Nord-Ovest
11.1 Km/h
Dew point 14 °C
Umidità 82 %
Visibilità 10 Km
Il sole sorge alle ore 06:21
Il sole tramonta alle ore 19:27
| Data e Ora | Cielo e Fenomeni | T °C | DP °C | Um. % | Pres. hPa | Vis. km | Vento km/h | |
|---|---|---|---|---|---|---|---|---|
| Oggi h: 06:55 | Nuvoloso | 17 | 14 | 82 | 1019 | 10 | O/NO 11.1 | |
| Oggi h: 06:35 | Nuvoloso | 18 | 15 | 82 | 1019 | 10 | N 0 | |
| Oggi h: 06:15 | Molto Nuvoloso | 18 | 15 | 82 | 1019 | 10 | O/SO 7.4 | |
| Oggi h: 05:55 | Molto Nuvoloso | 18 | 15 | 82 | 1019 | 10 | O/SO 9.3 | |
| Oggi h: 05:35 | Molto Nuvoloso | 18 | 15 | 82 | 1018 | 10 | O/SO 7.4 | |
| Oggi h: 05:15 | Coperto | 18 | 15 | 82 | 1019 | 10 | SO 11.1 | |
| Oggi h: 04:55 | Pioggia | 18 | 15 | 82 | 1019 | 10 | O/SO 11.1 | |
| Oggi h: 04:35 | Molto Nuvoloso | 18 | 15 | 82 | 1018 | 10 | SO 9.3 | |
| Oggi h: 04:15 | Molto Nuvoloso | 18 | 15 | 82 | 1019 | 10 | O/SO 7.4 | |
| Oggi h: 03:55 | Pioviggine | 18 | 14 | 77 | 1019 | 10 | O/SO 9.3 | |
| Oggi h: 03:35 | Pioggia | 19 | 14 | 72 | 1019 | 10 | O/SO 11.1 | |
| Oggi h: 03:15 | Sereno | 19 | 14 | 72 | 1019 | 10 | O 14.8 | |
| Oggi h: 02:55 | Sereno | 19 | 14 | 72 | 1019 | 10 | O 11.1 | |
| Oggi h: 02:35 | Molto Nuvoloso | 19 | 13 | 68 | 1019 | 10 | O 13 | |
| Oggi h: 02:15 | Molto Nuvoloso | 20 | 13 | 64 | 1019 | 10 | N 5.5 | |
| Oggi h: 01:55 | Molto Nuvoloso | 19 | 13 | 68 | 1019 | 10 | N 0 | |
| Oggi h: 01:35 | Molto Nuvoloso | 19 | 14 | 72 | 1019 | 10 | N 0 | |
| Oggi h: 01:15 | Molto Nuvoloso | 19 | 14 | 72 | 1019 | 10 | SO 13 | |
| Oggi h: 00:55 | Coperto | 19 | 14 | 72 | 1019 | 10 | S/SO 11.1 | |
| Oggi h: 00:35 | Coperto | 18 | 14 | 77 | 1020 | 10 | S/SO 9.3 | |
| Oggi h: 00:15 | Pioggia | 18 | 14 | 77 | 1020 | 10 | N 5.5 | |
| Ieri h: 23:55 | Pioggia | 20 | 13 | 64 | 1021 | 10 | S/SO 20.3 | |
| Ieri h: 23:35 | Coperto | 21 | 11 | 52 | 1021 | 10 | SO 33.3 | |
| Ieri h: 23:15 | Coperto | 23 | 9 | 40 | 1021 | 10 | S/SO 25.9 | |
| Ieri h: 22:55 | Coperto | 23 | 9 | 40 | 1021 | 10 | S 13 | |
| Ieri h: 22:35 | Coperto | 23 | 9 | 40 | 1020 | 10 | S/SE 13 | |
| Ieri h: 22:15 | Molto Nuvoloso | 23 | 9 | 40 | 1020 | 10 | E/SE 13 | |
| Ieri h: 21:55 | Molto Nuvoloso | 22 | 10 | 46 | 1020 | 10 | E 13 | |
| Ieri h: 21:35 | Coperto | 23 | 10 | 43 | 1020 | 10 | E/NE 9.3 | |
| Ieri h: 21:15 | Molto Nuvoloso | 23 | 10 | 43 | 1020 | 10 | E/SE 9.3 | |
| Ieri h: 20:55 | Molto Nuvoloso | 23 | 10 | 43 | 1020 | 10 | SE 7.4 | |
| Ieri h: 20:35 | Nuvoloso | 24 | 10 | 41 | 1019 | 10 | S 7.4 | |
| Ieri h: 20:15 | Nuvoloso | 24 | 10 | 41 | 1019 | 10 | S 9.3 | |
| Ieri h: 19:55 | Nuvoloso | 25 | 10 | 38 | 1019 | 10 | S 11.1 | |
| Ieri h: 19:35 | Sereno | 25 | 9 | 36 | 1019 | 10 | S 11.1 | |
| Ieri h: 19:15 | Sereno | 26 | 8 | 31 | 1019 | 10 | S 14.8 | |
| Ieri h: 18:55 | Sereno | 27 | 9 | 32 | 1018 | 10 | S 16.7 | |
| Ieri h: 18:35 | Sereno | 28 | 9 | 30 | 1019 | 10 | S 20.3 | |
| Ieri h: 18:15 | Sereno | 28 | 9 | 30 | 1019 | 10 | S 24 | |
| Ieri h: 17:55 | Sereno | 29 | 9 | 28 | 1019 | 10 | S/SO 18.5 | |
| Ieri h: 17:35 | Sereno | 29 | 9 | 28 | 1019 | 10 | S/SO 22.2 | |
| Ieri h: 17:15 | Sereno | 30 | 9 | 27 | 1019 | 10 | S/SO 24 | |
| Ieri h: 16:55 | Sereno | 30 | 7 | 23 | 1019 | 10 | S/SO 13 | |
| Ieri h: 16:35 | Sereno | 30 | 8 | 25 | 1019 | 10 | S/SO 18.5 | |
| Ieri h: 16:15 | Sereno | 30 | 8 | 25 | 1019 | 10 | S/SO 16.7 | |
| Ieri h: 15:55 | Sereno | 30 | 8 | 25 | 1019 | 10 | SO 18.5 | |
| Ieri h: 15:35 | Sereno | 30 | 8 | 25 | 1019 | 10 | S 14.8 | |
| Ieri h: 15:15 | Sereno | 30 | 5 | 20 | 1019 | 10 | SO 13 | |
| Ieri h: 14:55 | Nuvoloso | 32 | 6 | 19 | 1020 | 10 | O 16.7 | |
| Ieri h: 14:35 | Nuvoloso | 32 | 6 | 19 | 1020 | 10 | O 18.5 | |
| Ieri h: 14:15 | Molto Nuvoloso | 31 | 6 | 20 | 1020 | 10 | O/SO 16.7 | |
| Ieri h: 13:55 | Molto Nuvoloso | 31 | 7 | 22 | 1020 | 10 | O/SO 27.8 | |
| Ieri h: 13:35 | Nuvoloso | 31 | 7 | 22 | 1020 | 10 | O 18.5 | |
| Ieri h: 13:15 | Sereno | 30 | 7 | 23 | 1021 | 10 | O 14.8 | |
| Ieri h: 12:55 | Sereno | 29 | 7 | 25 | 1021 | 10 | NO 9.3 | |
| Ieri h: 12:35 | Sereno | 29 | 7 | 25 | 1021 | 10 | O/NO 9.3 | |
| Ieri h: 12:15 | Sereno | 29 | 7 | 25 | 1021 | 10 | NO 14.8 | |
| Ieri h: 11:55 | Sereno | 29 | 7 | 25 | 1021 | 10 | N/NO 14.8 | |
| Ieri h: 11:35 | Sereno | 28 | 6 | 24 | 1021 | 10 | NO 14.8 | |
| Ieri h: 11:15 | Sereno | 28 | 6 | 24 | 1021 | 10 | O/NO 16.7 | |
| Ieri h: 10:55 | Sereno | 28 | 6 | 24 | 1021 | 10 | NO 16.7 | |
| Ieri h: 10:35 | Sereno | 27 | 7 | 28 | 1022 | 10 | NO 16.7 | |
| Ieri h: 10:15 | Sereno | 26 | 7 | 29 | 1022 | 10 | NO 9.3 | |
| Ieri h: 09:55 | Sereno | 26 | 7 | 29 | 1021 | 10 | N/NO 18.5 | |
| Ieri h: 09:35 | Sereno | 25 | 8 | 33 | 1021 | 10 | N/NO 16.7 | |
| Ieri h: 09:15 | Sereno | 24 | 8 | 35 | 1021 | 10 | NO 14.8 | |
| Ieri h: 08:55 | Sereno | 22 | 9 | 43 | 1021 | 10 | NO 9.3 | |
| Ieri h: 08:35 | Sereno | 21 | 9 | 46 | 1021 | 10 | NO 14.8 | |
| Ieri h: 08:15 | Sereno | 22 | 9 | 43 | 1021 | 10 | NO 14.8 | |
| Ieri h: 07:55 | Sereno | 20 | 10 | 52 | 1021 | 10 | O/NO 14.8 | |
| Ieri h: 07:35 | Sereno | 17 | 11 | 67 | 1021 | 10 | O 7.4 | |



